createdAt,value
2019-02-17T00:00:15.406Z,-1.83
2019-02-17T00:01:15.427Z,-1.88
2019-02-17T00:02:14.691Z,-1.88
2019-02-17T00:03:14.949Z,-1.94
2019-02-17T00:04:15.213Z,-2.11
2019-02-17T00:05:14.484Z,-2.12
2019-02-17T00:06:14.755Z,-2.23
2019-02-17T00:07:15.025Z,-2.16
2019-02-17T00:08:15.283Z,-2.23
2019-02-17T00:09:14.542Z,-2.25
2019-02-17T00:10:14.809Z,-2.35
2019-02-17T00:11:14.859Z,-2.36
2019-02-17T00:12:15.124Z,-2.42
2019-02-17T00:13:15.380Z,-2.45
2019-02-17T00:14:14.645Z,-2.38
2019-02-17T00:15:14.906Z,-2.29
2019-02-17T00:16:15.173Z,-2.25
2019-02-17T00:17:15.439Z,-2.27
2019-02-17T00:18:14.699Z,-2.25
2019-02-17T00:19:14.966Z,-2.25
2019-02-17T00:20:15.249Z,-2.31
2019-02-17T00:21:15.269Z,-2.31
2019-02-17T00:22:14.536Z,-2.35
2019-02-17T00:23:14.817Z,-2.42
2019-02-17T00:24:15.077Z,-2.45
2019-02-17T00:25:15.342Z,-2.45
2019-02-17T00:26:14.612Z,-2.52
2019-02-17T00:27:14.870Z,-2.66
2019-02-17T00:28:15.141Z,-2.77
2019-02-17T00:29:15.415Z,-2.80
2019-02-17T00:30:14.689Z,-2.80
2019-02-17T00:31:14.754Z,-2.81
2019-02-17T00:32:15.013Z,-2.82
2019-02-17T00:33:15.276Z,-2.80
2019-02-17T00:34:14.544Z,-2.74
2019-02-17T00:35:14.825Z,-2.71
2019-02-17T00:36:15.087Z,-2.64
2019-02-17T00:37:15.364Z,-2.62
2019-02-17T00:38:14.634Z,-2.62
2019-02-17T00:39:14.916Z,-2.67
2019-02-17T00:40:15.205Z,-2.67
2019-02-17T00:41:15.239Z,-2.74
2019-02-17T00:42:14.492Z,-2.71
2019-02-17T00:43:14.755Z,-2.74
2019-02-17T00:44:15.030Z,-2.76
2019-02-17T00:45:15.308Z,-2.74
2019-02-17T00:46:14.579Z,-2.70
2019-02-17T00:47:14.845Z,-2.77
2019-02-17T00:48:15.140Z,-2.73
2019-02-17T00:49:15.401Z,-2.71
2019-02-17T00:50:14.666Z,-2.71
2019-02-17T00:51:14.712Z,-2.76
2019-02-17T00:52:14.975Z,-2.77
2019-02-17T00:53:15.238Z,-2.64
2019-02-17T00:54:14.507Z,-2.67
2019-02-17T00:55:14.781Z,-2.70
2019-02-17T00:56:15.048Z,-2.70
2019-02-17T00:57:15.394Z,-2.69
2019-02-17T00:58:14.668Z,-2.69
2019-02-17T00:59:14.942Z,-2.74
2019-02-17T01:00:15.225Z,-2.73
2019-02-17T01:01:15.276Z,-2.71
2019-02-17T01:02:14.550Z,-2.70
2019-02-17T01:03:14.819Z,-2.73
2019-02-17T01:04:15.078Z,-2.76
2019-02-17T01:05:15.348Z,-2.81
2019-02-17T01:06:14.621Z,-2.81
2019-02-17T01:07:14.890Z,-2.73
2019-02-17T01:08:15.151Z,-2.76
2019-02-17T01:09:15.430Z,-2.74
2019-02-17T01:10:14.702Z,-2.76
2019-02-17T01:11:14.746Z,-2.74
2019-02-17T01:12:15.019Z,-2.76
2019-02-17T01:13:15.283Z,-2.74
2019-02-17T01:14:14.546Z,-2.74
2019-02-17T01:15:14.815Z,-2.70
2019-02-17T01:16:15.086Z,-2.67
2019-02-17T01:17:15.382Z,-2.62
2019-02-17T01:18:14.648Z,-2.63
2019-02-17T01:19:14.914Z,-2.57
2019-02-17T01:20:15.177Z,-2.52
2019-02-17T01:21:15.218Z,-2.56
2019-02-17T01:22:14.483Z,-2.53
2019-02-17T01:23:14.750Z,-2.46
2019-02-17T01:24:15.024Z,-2.48
2019-02-17T01:25:15.286Z,-2.45
2019-02-17T01:26:14.551Z,-2.45
2019-02-17T01:27:14.804Z,-2.41
2019-02-17T01:28:15.078Z,-2.35
2019-02-17T01:29:20.284Z,-2.38
2019-02-17T01:30:15.184Z,-2.31
2019-02-17T01:31:15.233Z,-2.23
2019-02-17T01:32:14.507Z,-2.23
2019-02-17T01:33:14.771Z,-2.29
2019-02-17T01:34:15.044Z,-2.25
2019-02-17T01:35:15.309Z,-2.29
2019-02-17T01:36:14.577Z,-2.31
2019-02-17T01:37:14.858Z,-2.29
2019-02-17T01:38:15.118Z,-2.27
2019-02-17T01:39:15.380Z,-2.26
2019-02-17T01:40:14.655Z,-2.26
2019-02-17T01:41:14.693Z,-2.23
2019-02-17T01:42:14.961Z,-2.23
2019-02-17T01:43:15.231Z,-2.15
2019-02-17T01:44:15.213Z,-2.12
2019-02-17T01:45:14.474Z,-2.16
2019-02-17T01:46:14.737Z,-2.23
2019-02-17T01:47:14.996Z,-2.22
2019-02-17T01:48:15.269Z,-2.26
2019-02-17T01:49:14.549Z,-2.31
2019-02-17T01:50:14.827Z,-2.32
2019-02-17T01:51:14.868Z,-2.36
2019-02-17T01:52:15.143Z,-2.35
2019-02-17T01:53:15.400Z,-2.32
2019-02-17T01:54:14.657Z,-2.33
2019-02-17T01:55:14.927Z,-2.38
2019-02-17T01:56:15.190Z,-2.38
2019-02-17T01:57:14.450Z,-2.32
2019-02-17T01:58:14.712Z,-2.32
2019-02-17T01:59:14.978Z,-2.48
2019-02-17T02:00:15.248Z,-2.53
2019-02-17T02:01:17.043Z,-2.54
2019-02-17T02:02:14.577Z,-2.71
2019-02-17T02:03:14.843Z,-2.76
2019-02-17T02:04:15.103Z,-2.80
2019-02-17T02:05:15.364Z,-2.77
2019-02-17T02:06:14.633Z,-2.84
2019-02-17T02:07:14.910Z,-2.80
2019-02-17T02:08:15.170Z,-2.81
2019-02-17T02:09:15.444Z,-2.82
2019-02-17T02:10:14.740Z,-2.84
2019-02-17T02:11:14.773Z,-2.76
2019-02-17T02:12:15.043Z,-2.77
2019-02-17T02:13:15.322Z,-2.77
2019-02-17T02:14:14.585Z,-2.73
2019-02-17T02:15:14.864Z,-2.74
2019-02-17T02:16:15.129Z,-2.71
2019-02-17T02:17:15.397Z,-2.77
2019-02-17T02:18:14.661Z,-2.78
2019-02-17T02:19:14.925Z,-2.84
2019-02-17T02:20:15.191Z,-2.87
2019-02-17T02:21:15.252Z,-2.85
2019-02-17T02:22:14.525Z,-2.85
2019-02-17T02:23:14.800Z,-2.88
2019-02-17T02:24:15.054Z,-2.77
2019-02-17T02:25:15.326Z,-2.77
2019-02-17T02:26:14.616Z,-2.87
2019-02-17T02:27:14.892Z,-2.95
2019-02-17T02:28:15.169Z,-3.09
2019-02-17T02:29:14.441Z,-3.13
2019-02-17T02:30:14.730Z,-3.19
2019-02-17T02:31:14.768Z,-3.25
2019-02-17T02:32:15.039Z,-3.35
2019-02-17T02:33:15.319Z,-3.32
2019-02-17T02:34:14.591Z,-3.30
2019-02-17T02:35:14.877Z,-3.25
2019-02-17T02:36:15.142Z,-3.26
2019-02-17T02:37:15.425Z,-3.23
2019-02-17T02:38:14.706Z,-3.23
2019-02-17T02:39:14.999Z,-3.23
2019-02-17T02:40:15.293Z,-3.23
2019-02-17T02:41:15.323Z,-3.22
2019-02-17T02:42:14.588Z,-3.23
2019-02-17T02:43:14.921Z,-3.26
2019-02-17T02:44:15.191Z,-3.28
2019-02-17T02:45:14.458Z,-3.26
2019-02-17T02:46:14.721Z,-3.36
2019-02-17T02:47:14.984Z,-3.39
2019-02-17T02:48:15.247Z,-3.41
2019-02-17T02:49:14.760Z,-3.37
2019-02-17T02:50:15.043Z,-3.35
2019-02-17T02:51:15.074Z,-3.36
2019-02-17T02:52:15.343Z,-3.35
2019-02-17T02:53:14.647Z,-3.30
2019-02-17T02:54:14.920Z,-3.26
2019-02-17T02:55:15.182Z,-3.28
2019-02-17T02:56:14.435Z,-3.29
2019-02-17T02:57:14.705Z,-3.28
2019-02-17T02:58:14.967Z,-3.29
2019-02-17T02:59:15.232Z,-3.29
2019-02-17T03:00:14.501Z,-3.28
2019-02-17T03:01:14.556Z,-3.28
2019-02-17T03:02:14.818Z,-3.23
2019-02-17T03:03:15.097Z,-3.25
2019-02-17T03:04:15.368Z,-3.21
2019-02-17T03:05:14.647Z,-3.13
2019-02-17T03:06:14.919Z,-3.09
2019-02-17T03:07:15.186Z,-3.02
2019-02-17T03:08:14.467Z,-3.00
2019-02-17T03:09:14.739Z,-3.00
2019-02-17T03:10:15.022Z,-3.08
2019-02-17T03:11:15.055Z,-3.13
2019-02-17T03:12:15.321Z,-3.05
2019-02-17T03:13:14.604Z,-3.07
2019-02-17T03:14:14.866Z,-3.11
2019-02-17T03:15:15.139Z,-3.04
2019-02-17T03:16:15.403Z,-3.05
2019-02-17T03:17:14.662Z,-3.09
2019-02-17T03:18:14.936Z,-3.13
2019-02-17T03:19:15.199Z,-3.19
2019-02-17T03:20:14.474Z,-3.16
2019-02-17T03:21:14.533Z,-3.15
2019-02-17T03:22:14.801Z,-3.09
2019-02-17T03:23:15.073Z,-3.15
2019-02-17T03:24:15.334Z,-3.11
2019-02-17T03:25:14.602Z,-3.09
2019-02-17T03:26:14.879Z,-3.19
2019-02-17T03:27:15.145Z,-3.16
2019-02-17T03:28:15.416Z,-3.18
2019-02-17T03:29:14.678Z,-3.23
2019-02-17T03:30:14.987Z,-3.18
2019-02-17T03:31:15.011Z,-3.05
2019-02-17T03:32:15.354Z,-2.95
2019-02-17T03:33:14.783Z,-2.95
2019-02-17T03:34:15.053Z,-2.91
2019-02-17T03:35:15.330Z,-3.02
2019-02-17T03:36:14.604Z,-3.32
2019-02-17T03:37:14.870Z,-3.36
2019-02-17T03:38:15.140Z,-3.61
2019-02-17T03:39:15.408Z,-3.77
2019-02-17T03:40:14.669Z,-3.70
2019-02-17T03:41:14.715Z,-3.64
2019-02-17T03:42:14.981Z,-3.66
2019-02-17T03:43:15.259Z,-3.63
2019-02-17T03:44:15.383Z,-3.66
2019-02-17T03:45:14.649Z,-3.66
2019-02-17T03:46:14.915Z,-3.61
2019-02-17T03:47:15.188Z,-3.66
2019-02-17T03:48:14.457Z,-3.67
2019-02-17T03:49:14.730Z,-3.68
2019-02-17T03:50:15.007Z,-3.66
2019-02-17T03:51:15.042Z,-3.67
2019-02-17T03:52:15.304Z,-3.68
2019-02-17T03:53:14.581Z,-3.66
2019-02-17T03:54:14.854Z,-3.64
2019-02-17T03:55:15.129Z,-3.67
2019-02-17T03:56:15.398Z,-3.64
2019-02-17T03:57:14.734Z,-3.67
2019-02-17T03:58:15.000Z,-3.66
2019-02-17T03:59:15.277Z,-3.60
2019-02-17T04:00:17.162Z,-3.59
2019-02-17T04:01:14.625Z,-3.59
2019-02-17T04:02:14.888Z,-3.61
2019-02-17T04:03:15.165Z,-3.66
2019-02-17T04:04:15.432Z,-3.66
2019-02-17T04:05:14.706Z,-3.67
2019-02-17T04:06:15.044Z,-3.67
2019-02-17T04:07:15.324Z,-3.68
2019-02-17T04:08:14.600Z,-3.68
2019-02-17T04:09:14.881Z,-3.67
2019-02-17T04:10:15.175Z,-3.67
2019-02-17T04:11:15.188Z,-3.64
2019-02-17T04:12:14.452Z,-3.68
2019-02-17T04:13:14.726Z,-3.73
2019-02-17T04:14:14.997Z,-3.66
2019-02-17T04:15:15.270Z,-3.66
2019-02-17T04:16:14.529Z,-3.68
2019-02-17T04:17:14.795Z,-3.70
2019-02-17T04:18:15.180Z,-3.67
2019-02-17T04:19:14.458Z,-3.68
2019-02-17T04:20:14.722Z,-3.80
2019-02-17T04:21:14.808Z,-3.86
2019-02-17T04:22:15.082Z,-3.80
2019-02-17T04:23:15.360Z,-3.81
2019-02-17T04:24:14.624Z,-3.83
2019-02-17T04:25:14.889Z,-3.83
2019-02-17T04:26:15.149Z,-3.86
2019-02-17T04:27:15.437Z,-3.86
2019-02-17T04:28:14.709Z,-3.86
2019-02-17T04:29:14.982Z,-3.73
2019-02-17T04:30:15.296Z,-3.73
2019-02-17T04:31:15.314Z,-3.80
2019-02-17T04:32:14.595Z,-3.76
2019-02-17T04:33:14.878Z,-3.73
2019-02-17T04:34:15.155Z,-3.76
2019-02-17T04:35:15.447Z,-3.73
2019-02-17T04:36:14.728Z,-3.67
2019-02-17T04:37:15.012Z,-3.63
2019-02-17T04:38:15.272Z,-3.73
2019-02-17T04:39:14.542Z,-3.74
2019-02-17T04:40:15.041Z,-3.78
2019-02-17T04:41:14.880Z,-3.78
2019-02-17T04:42:15.173Z,-3.76
2019-02-17T04:43:14.428Z,-3.77
2019-02-17T04:44:14.697Z,-3.77
2019-02-17T04:45:14.963Z,-3.77
2019-02-17T04:46:15.245Z,-3.76
2019-02-17T04:47:14.517Z,-3.84
2019-02-17T04:48:14.781Z,-3.86
2019-02-17T04:49:15.041Z,-3.83
2019-02-17T04:50:15.342Z,-3.80
2019-02-17T04:51:15.363Z,-3.78
2019-02-17T04:52:14.643Z,-3.77
2019-02-17T04:53:14.914Z,-3.81
2019-02-17T04:54:15.182Z,-3.80
2019-02-17T04:55:14.461Z,-3.84
2019-02-17T04:56:14.725Z,-3.86
2019-02-17T04:57:15.003Z,-3.80
2019-02-17T04:58:15.272Z,-3.80
2019-02-17T04:59:14.545Z,-3.80
2019-02-17T05:00:14.821Z,-3.80
2019-02-17T05:01:14.872Z,-3.77
2019-02-17T05:02:15.416Z,-3.77
2019-02-17T05:03:14.679Z,-3.81
2019-02-17T05:04:14.959Z,-3.86
2019-02-17T05:05:15.268Z,-3.87
2019-02-17T05:06:14.525Z,-3.80
2019-02-17T05:07:14.796Z,-3.77
2019-02-17T05:08:15.063Z,-3.77
2019-02-17T05:09:15.333Z,-3.84
2019-02-17T05:10:14.626Z,-3.83
2019-02-17T05:11:14.653Z,-3.78
2019-02-17T05:12:14.925Z,-3.80
2019-02-17T05:13:15.192Z,-3.78
2019-02-17T05:14:14.470Z,-3.90
2019-02-17T05:15:14.740Z,-3.97
2019-02-17T05:16:15.013Z,-3.97
2019-02-17T05:17:15.281Z,-3.98
2019-02-17T05:18:14.560Z,-3.99
2019-02-17T05:19:14.834Z,-4.02
2019-02-17T05:20:15.119Z,-3.94
2019-02-17T05:21:15.164Z,-3.93
2019-02-17T05:22:14.441Z,-3.98
2019-02-17T05:23:14.717Z,-4.01
2019-02-17T05:24:14.985Z,-4.08
2019-02-17T05:25:15.250Z,-4.04
2019-02-17T05:26:14.731Z,-4.05
2019-02-17T05:27:15.011Z,-4.08
2019-02-17T05:28:15.278Z,-4.06
2019-02-17T05:29:14.554Z,-4.06
2019-02-17T05:30:14.827Z,-4.06
2019-02-17T05:31:14.877Z,-4.08
2019-02-17T05:32:15.157Z,-4.14
2019-02-17T05:33:15.421Z,-4.14
2019-02-17T05:34:14.685Z,-4.21
2019-02-17T05:35:14.956Z,-4.22
2019-02-17T05:36:15.270Z,-4.25
2019-02-17T05:37:14.563Z,-4.26
2019-02-17T05:38:14.837Z,-4.22
2019-02-17T05:39:15.103Z,-4.23
2019-02-17T05:40:15.390Z,-4.21
2019-02-17T05:41:15.429Z,-4.18
2019-02-17T05:42:14.699Z,-4.21
2019-02-17T05:43:14.959Z,-4.21
2019-02-17T05:44:15.222Z,-4.21
2019-02-17T05:45:14.542Z,-4.12
2019-02-17T05:46:14.863Z,-4.12
2019-02-17T05:47:15.127Z,-4.06
2019-02-17T05:48:15.397Z,-4.09
2019-02-17T05:49:14.657Z,-4.08
2019-02-17T05:50:14.927Z,-4.09
2019-02-17T05:51:14.985Z,-4.08
2019-02-17T05:52:15.255Z,-4.12
2019-02-17T05:53:14.513Z,-4.15
2019-02-17T05:54:14.807Z,-4.09
2019-02-17T05:55:15.101Z,-4.08
2019-02-17T05:56:15.369Z,-4.01
2019-02-17T05:57:14.637Z,-4.11
2019-02-17T05:58:14.916Z,-4.12
2019-02-17T05:59:15.181Z,-4.14
2019-02-17T06:00:14.456Z,-4.12
2019-02-17T06:01:14.542Z,-4.19
2019-02-17T06:02:14.805Z,-4.12
2019-02-17T06:03:15.084Z,-4.18
2019-02-17T06:04:15.361Z,-4.11
2019-02-17T06:05:14.628Z,-4.06
2019-02-17T06:06:15.165Z,-4.05
2019-02-17T06:07:14.512Z,-4.06
2019-02-17T06:08:14.784Z,-4.05
2019-02-17T06:09:15.061Z,-4.12
2019-02-17T06:10:15.616Z,-4.12
2019-02-17T06:11:15.391Z,-4.08
2019-02-17T06:12:14.657Z,-4.14
2019-02-17T06:13:14.917Z,-4.11
2019-02-17T06:14:15.184Z,-4.14
2019-02-17T06:15:14.476Z,-4.15
2019-02-17T06:16:14.753Z,-4.16
2019-02-17T06:17:15.021Z,-4.26
2019-02-17T06:18:15.279Z,-4.32
2019-02-17T06:19:14.541Z,-4.40
2019-02-17T06:20:14.821Z,-4.43
2019-02-17T06:21:14.874Z,-4.43
2019-02-17T06:22:15.189Z,-4.37
2019-02-17T06:23:14.446Z,-4.35
2019-02-17T06:24:14.710Z,-4.36
2019-02-17T06:25:14.998Z,-4.43
2019-02-17T06:26:15.277Z,-4.45
2019-02-17T06:27:14.542Z,-4.47
2019-02-17T06:28:14.802Z,-4.47
2019-02-17T06:29:15.061Z,-4.50
2019-02-17T06:30:15.360Z,-4.47
2019-02-17T06:31:15.390Z,-4.52
2019-02-17T06:32:14.656Z,-4.46
2019-02-17T06:33:14.929Z,-4.46
2019-02-17T06:34:15.205Z,-4.40
2019-02-17T06:35:14.496Z,-4.39
2019-02-17T06:36:14.783Z,-4.36
2019-02-17T06:37:15.062Z,-4.35
2019-02-17T06:38:15.328Z,-4.33
2019-02-17T06:39:14.598Z,-4.33
2019-02-17T06:40:14.898Z,-4.32
2019-02-17T06:41:14.931Z,-4.32
2019-02-17T06:42:15.220Z,-4.25
2019-02-17T06:43:14.492Z,-4.21
2019-02-17T06:44:14.759Z,-4.23
2019-02-17T06:45:15.035Z,-4.21
2019-02-17T06:46:15.309Z,-4.23
2019-02-17T06:47:14.568Z,-4.22
2019-02-17T06:48:14.828Z,-4.16
2019-02-17T06:49:15.101Z,-4.14
2019-02-17T06:50:15.675Z,-4.08
2019-02-17T06:51:15.426Z,-4.09
2019-02-17T06:52:14.697Z,-4.01
2019-02-17T06:53:14.965Z,-3.93
2019-02-17T06:54:15.231Z,-3.91
2019-02-17T06:55:14.496Z,-3.98
2019-02-17T06:56:14.787Z,-3.88
2019-02-17T06:57:15.049Z,-3.84
2019-02-17T06:58:15.319Z,-3.81
2019-02-17T06:59:14.586Z,-3.74
2019-02-17T07:00:14.869Z,-3.71
2019-02-17T07:01:23.975Z,-3.74
2019-02-17T07:02:15.276Z,-3.68
2019-02-17T07:03:14.594Z,-3.66
2019-02-17T07:04:14.891Z,-3.70
2019-02-17T07:05:15.158Z,-3.68
2019-02-17T07:06:15.433Z,-3.67
2019-02-17T07:07:14.719Z,-3.66
2019-02-17T07:08:15.032Z,-3.66
2019-02-17T07:09:15.300Z,-3.66
2019-02-17T07:10:14.568Z,-3.57
2019-02-17T07:11:14.617Z,-3.57
2019-02-17T07:12:15.000Z,-3.49
2019-02-17T07:13:15.276Z,-3.51
2019-02-17T07:14:14.541Z,-3.54
2019-02-17T07:15:14.810Z,-3.56
2019-02-17T07:16:15.167Z,-3.57
2019-02-17T07:17:15.432Z,-3.59
2019-02-17T07:18:14.700Z,-3.54
2019-02-17T07:19:15.023Z,-3.53
2019-02-17T07:20:15.334Z,-3.54
2019-02-17T07:21:15.349Z,-3.54
2019-02-17T07:22:14.619Z,-3.54
2019-02-17T07:23:15.374Z,-3.56
2019-02-17T07:24:14.769Z,-3.49
2019-02-17T07:25:15.042Z,-3.46
2019-02-17T07:26:17.095Z,-3.46
2019-02-17T07:27:14.686Z,-3.44
2019-02-17T07:28:14.949Z,-3.49
2019-02-17T07:29:16.816Z,-3.49
2019-02-17T07:30:15.319Z,-3.51
2019-02-17T07:31:15.347Z,-3.50
2019-02-17T07:32:14.620Z,-3.46
2019-02-17T07:33:14.891Z,-3.43
2019-02-17T07:34:15.147Z,-3.39
2019-02-17T07:35:15.416Z,-3.30
2019-02-17T07:36:14.689Z,-3.29
2019-02-17T07:37:14.952Z,-3.26
2019-02-17T07:38:15.221Z,-3.25
2019-02-17T07:39:14.483Z,-3.25
2019-02-17T07:40:14.775Z,-3.19
2019-02-17T07:41:14.800Z,-3.21
2019-02-17T07:42:15.067Z,-3.21
2019-02-17T07:43:15.338Z,-3.15
2019-02-17T07:44:14.609Z,-3.15
2019-02-17T07:45:14.891Z,-3.12
2019-02-17T07:46:15.160Z,-3.08
2019-02-17T07:47:15.429Z,-3.04
2019-02-17T07:48:14.695Z,-2.95
2019-02-17T07:49:14.958Z,-2.95
2019-02-17T07:50:15.237Z,-2.88
2019-02-17T07:51:15.275Z,-2.84
2019-02-17T07:52:14.539Z,-2.69
2019-02-17T07:53:14.808Z,-2.67
2019-02-17T07:54:15.069Z,-2.60
2019-02-17T07:55:15.344Z,-2.59
2019-02-17T07:56:14.618Z,-2.48
2019-02-17T07:57:14.890Z,-2.42
2019-02-17T07:58:15.153Z,-2.38
2019-02-17T07:59:15.418Z,-2.35
2019-02-17T08:00:14.712Z,-2.21
2019-02-17T08:01:14.756Z,-2.16
2019-02-17T08:02:15.014Z,-2.11
2019-02-17T08:03:15.296Z,-2.08
2019-02-17T08:04:14.564Z,-2.09
2019-02-17T08:05:14.826Z,-2.02
2019-02-17T08:06:15.095Z,-2.02
2019-02-17T08:07:15.350Z,-1.90
2019-02-17T08:08:14.616Z,-1.85
2019-02-17T08:09:14.872Z,-1.80
2019-02-17T08:10:15.159Z,-1.81
2019-02-17T08:11:15.193Z,-1.87
2019-02-17T08:12:14.481Z,-1.77
2019-02-17T08:13:14.747Z,-1.80
2019-02-17T08:14:15.012Z,-1.81
2019-02-17T08:15:15.287Z,-1.70
2019-02-17T08:16:14.554Z,-1.67
2019-02-17T08:17:14.830Z,-1.63
2019-02-17T08:18:15.102Z,-1.52
2019-02-17T08:19:15.371Z,-1.40
2019-02-17T08:20:14.643Z,-1.43
2019-02-17T08:21:14.687Z,-1.43
2019-02-17T08:22:14.956Z,-1.40
2019-02-17T08:23:15.218Z,-1.39
2019-02-17T08:24:14.493Z,-1.22
2019-02-17T08:25:21.367Z,-1.19
2019-02-17T08:26:14.517Z,-1.11
2019-02-17T08:27:14.785Z,-1.08
2019-02-17T08:28:15.051Z,-0.94
2019-02-17T08:29:15.310Z,-0.84
2019-02-17T08:30:14.587Z,-0.82
2019-02-17T08:31:14.633Z,-0.81
2019-02-17T08:32:14.932Z,-0.80
2019-02-17T08:33:15.196Z,-0.66
2019-02-17T08:34:14.471Z,-0.57
2019-02-17T08:35:14.744Z,-0.39
2019-02-17T08:36:15.014Z,-0.33
2019-02-17T08:37:15.288Z,-0.33
2019-02-17T08:38:14.558Z,-0.33
2019-02-17T08:39:14.828Z,-0.21
2019-02-17T08:40:15.110Z,-0.21
2019-02-17T08:41:15.156Z,-0.07
2019-02-17T08:42:15.420Z,-0.14
2019-02-17T08:43:14.691Z,-0.15
2019-02-17T08:44:15.030Z,-0.12
2019-02-17T08:45:15.307Z,-0.14
2019-02-17T08:46:14.576Z,0.06
2019-02-17T08:47:14.843Z,0.06
2019-02-17T08:48:15.102Z,0.17
2019-02-17T08:49:15.364Z,0.41
2019-02-17T08:50:14.635Z,0.72
2019-02-17T08:51:14.678Z,0.79
2019-02-17T08:52:14.948Z,1.13
2019-02-17T08:53:15.219Z,1.33
2019-02-17T08:54:14.498Z,1.36
2019-02-17T08:55:14.773Z,1.50
2019-02-17T08:56:15.044Z,1.44
2019-02-17T08:57:15.308Z,1.47
2019-02-17T08:58:14.580Z,1.72
2019-02-17T08:59:14.860Z,1.65
2019-02-17T09:00:15.123Z,1.69
2019-02-17T09:01:15.180Z,1.64
2019-02-17T09:02:14.446Z,1.47
2019-02-17T09:03:14.718Z,1.44
2019-02-17T09:04:14.988Z,1.54
2019-02-17T09:05:15.245Z,1.43
2019-02-17T09:06:14.522Z,1.44
2019-02-17T09:07:14.784Z,1.39
2019-02-17T09:08:15.057Z,1.37
2019-02-17T09:09:15.344Z,1.51
2019-02-17T09:10:14.622Z,1.71
2019-02-17T09:11:14.673Z,1.99
2019-02-17T09:12:14.951Z,2.13
2019-02-17T09:13:15.213Z,2.19
2019-02-17T09:14:14.483Z,2.10
2019-02-17T09:15:14.755Z,2.10
2019-02-17T09:16:15.033Z,2.05
2019-02-17T09:17:15.292Z,2.37
2019-02-17T09:18:14.563Z,2.41
2019-02-17T09:19:14.829Z,2.55
2019-02-17T09:20:15.117Z,2.53
2019-02-17T09:21:15.143Z,2.71
2019-02-17T09:22:15.404Z,2.78
2019-02-17T09:23:14.665Z,3.16
2019-02-17T09:24:14.926Z,3.26
2019-02-17T09:25:15.257Z,2.99
2019-02-17T09:26:14.518Z,2.88
2019-02-17T09:27:14.791Z,2.95
2019-02-17T09:28:15.067Z,3.00
2019-02-17T09:29:15.328Z,2.82
2019-02-17T09:30:14.615Z,2.67
2019-02-17T09:31:14.660Z,2.65
2019-02-17T09:32:16.489Z,2.58
2019-02-17T09:33:15.178Z,2.67
2019-02-17T09:34:14.445Z,2.74
2019-02-17T09:35:14.713Z,2.85
2019-02-17T09:36:14.986Z,3.07
2019-02-17T09:37:15.245Z,3.30
2019-02-17T09:38:14.528Z,3.34
2019-02-17T09:39:14.808Z,3.82
2019-02-17T09:40:15.084Z,4.05
2019-02-17T09:41:15.136Z,4.19
2019-02-17T09:42:15.402Z,4.10
2019-02-17T09:43:14.669Z,3.93
2019-02-17T09:44:14.922Z,3.71
2019-02-17T09:45:15.196Z,4.19
2019-02-17T09:46:14.469Z,4.50
2019-02-17T09:47:14.735Z,4.50
2019-02-17T09:48:15.010Z,4.71
2019-02-17T09:49:15.275Z,4.76
2019-02-17T09:50:14.553Z,4.68
2019-02-17T09:51:14.606Z,4.63
2019-02-17T09:52:14.874Z,4.85
2019-02-17T09:53:15.140Z,4.76
2019-02-17T09:54:15.405Z,4.63
2019-02-17T09:55:14.674Z,4.65
2019-02-17T09:56:14.932Z,4.79
2019-02-17T09:57:15.193Z,4.63
2019-02-17T09:58:14.541Z,4.53
2019-02-17T09:59:14.824Z,4.34
2019-02-17T10:00:15.100Z,4.65
2019-02-17T10:01:15.141Z,4.67
2019-02-17T10:02:15.416Z,4.57
2019-02-17T10:03:14.679Z,4.44
2019-02-17T10:04:14.935Z,4.71
2019-02-17T10:05:15.199Z,5.06
2019-02-17T10:06:14.478Z,5.61
2019-02-17T10:07:14.745Z,5.79
2019-02-17T10:08:15.021Z,5.58
2019-02-17T10:09:15.286Z,5.57
2019-02-17T10:10:14.559Z,5.58
2019-02-17T10:11:14.614Z,5.60
2019-02-17T10:12:14.894Z,5.78
2019-02-17T10:13:15.163Z,5.70
2019-02-17T10:14:14.436Z,5.77
2019-02-17T10:15:14.706Z,6.05
2019-02-17T10:16:14.973Z,5.93
2019-02-17T10:17:15.237Z,6.24
2019-02-17T10:18:14.500Z,6.38
2019-02-17T10:19:14.770Z,5.96
2019-02-17T10:20:15.043Z,6.17
2019-02-17T10:21:15.108Z,6.16
2019-02-17T10:22:15.380Z,6.08
2019-02-17T10:23:14.647Z,6.05
2019-02-17T10:24:14.924Z,6.14
2019-02-17T10:25:15.201Z,6.26
2019-02-17T10:26:14.473Z,6.20
2019-02-17T10:27:14.731Z,6.10
2019-02-17T10:28:15.083Z,5.82
2019-02-17T10:29:15.351Z,6.24
2019-02-17T10:30:14.631Z,6.55
2019-02-17T10:31:14.666Z,6.58
2019-02-17T10:32:14.928Z,6.81
2019-02-17T10:33:15.197Z,6.63
2019-02-17T10:34:14.540Z,6.51
2019-02-17T10:35:14.812Z,6.71
2019-02-17T10:36:15.072Z,6.64
2019-02-17T10:37:15.340Z,6.85
2019-02-17T10:38:14.614Z,6.84
2019-02-17T10:39:14.881Z,6.64
2019-02-17T10:40:15.149Z,6.82
2019-02-17T10:41:15.198Z,6.61
2019-02-17T10:42:14.465Z,6.79
2019-02-17T10:43:14.732Z,6.61
2019-02-17T10:44:14.998Z,6.75
2019-02-17T10:45:15.280Z,6.79
2019-02-17T10:46:14.553Z,7.03
2019-02-17T10:47:14.815Z,6.82
2019-02-17T10:48:15.087Z,6.78
2019-02-17T10:49:15.353Z,6.59
2019-02-17T10:50:14.635Z,6.86
2019-02-17T10:51:14.696Z,6.75
2019-02-17T10:52:14.974Z,6.76
2019-02-17T10:53:15.249Z,7.12
2019-02-17T10:54:14.644Z,7.27
2019-02-17T10:55:14.926Z,7.17
2019-02-17T10:56:15.194Z,7.41
2019-02-17T10:57:14.450Z,7.47
2019-02-17T10:58:14.713Z,7.51
2019-02-17T10:59:14.978Z,7.29
2019-02-17T11:00:15.256Z,7.07
2019-02-17T11:01:15.295Z,7.02
2019-02-17T11:02:14.559Z,7.38
2019-02-17T11:03:14.822Z,7.41
2019-02-17T11:04:15.089Z,7.37
2019-02-17T11:05:15.366Z,7.51
2019-02-17T11:06:14.629Z,7.35
2019-02-17T11:07:14.892Z,7.17
2019-02-17T11:08:15.152Z,7.20
2019-02-17T11:09:14.495Z,7.41
2019-02-17T11:10:14.778Z,7.88
2019-02-17T11:11:14.816Z,7.59
2019-02-17T11:12:15.083Z,7.69
2019-02-17T11:13:15.652Z,7.86
2019-02-17T11:14:14.923Z,7.62
2019-02-17T11:15:15.190Z,7.45
2019-02-17T11:16:14.456Z,7.50
2019-02-17T11:17:14.722Z,7.91
2019-02-17T11:18:14.979Z,7.91
2019-02-17T11:19:15.237Z,7.55
2019-02-17T11:20:14.507Z,7.58
2019-02-17T11:21:14.570Z,7.95
2019-02-17T11:22:22.866Z,8.09
2019-02-17T11:23:14.729Z,8.08
2019-02-17T11:24:14.992Z,7.91
2019-02-17T11:25:15.257Z,7.72
2019-02-17T11:26:14.527Z,7.64
2019-02-17T11:27:14.795Z,7.50
2019-02-17T11:28:15.067Z,7.59
2019-02-17T11:29:15.343Z,7.89
2019-02-17T11:30:14.618Z,8.06
2019-02-17T11:31:14.657Z,8.29
2019-02-17T11:32:14.919Z,8.43
2019-02-17T11:33:15.183Z,8.78
2019-02-17T11:34:14.447Z,8.69
2019-02-17T11:35:14.717Z,8.30
2019-02-17T11:36:14.978Z,8.37
2019-02-17T11:37:15.246Z,8.65
2019-02-17T11:38:14.515Z,8.58
2019-02-17T11:39:14.782Z,8.52
2019-02-17T11:40:15.075Z,8.59
2019-02-17T11:41:15.123Z,8.47
2019-02-17T11:42:15.412Z,8.44
2019-02-17T11:43:14.690Z,8.74
2019-02-17T11:44:14.958Z,8.69
2019-02-17T11:45:15.223Z,8.52
2019-02-17T11:46:14.483Z,8.98
2019-02-17T11:47:14.771Z,9.34
2019-02-17T11:48:15.053Z,9.36
2019-02-17T11:49:15.342Z,9.51
2019-02-17T11:50:15.724Z,8.99
2019-02-17T11:51:14.659Z,9.17
2019-02-17T11:52:14.929Z,9.51
2019-02-17T11:53:15.197Z,9.50
2019-02-17T11:54:14.464Z,9.55
2019-02-17T11:55:14.765Z,9.54
2019-02-17T11:56:15.035Z,9.34
2019-02-17T11:57:15.293Z,9.47
2019-02-17T11:58:14.555Z,9.57
2019-02-17T11:59:14.828Z,9.66
2019-02-17T12:00:15.102Z,9.72
2019-02-17T12:01:15.160Z,9.59
2019-02-17T12:02:24.284Z,9.34
2019-02-17T12:03:14.693Z,9.27
2019-02-17T12:04:14.960Z,9.62
2019-02-17T12:05:15.233Z,9.84
2019-02-17T12:06:14.494Z,9.89
2019-02-17T12:07:14.751Z,9.93
2019-02-17T12:08:15.016Z,10.51
2019-02-17T12:09:15.280Z,10.63
2019-02-17T12:10:14.572Z,10.58
2019-02-17T12:11:14.629Z,9.96
2019-02-17T12:12:14.899Z,10.16
2019-02-17T12:13:15.162Z,10.13
2019-02-17T12:14:14.433Z,10.17
2019-02-17T12:15:14.714Z,10.26
2019-02-17T12:16:14.984Z,9.98
2019-02-17T12:17:15.247Z,9.91
2019-02-17T12:18:14.505Z,10.01
2019-02-17T12:19:14.770Z,10.10
2019-02-17T12:20:15.053Z,10.40
2019-02-17T12:21:15.107Z,10.30
2019-02-17T12:22:15.371Z,10.06
2019-02-17T12:23:14.642Z,10.01
2019-02-17T12:24:14.894Z,9.76
2019-02-17T12:25:15.164Z,9.86
2019-02-17T12:26:14.488Z,9.95
2019-02-17T12:27:14.830Z,9.96
2019-02-17T12:28:15.094Z,9.91
2019-02-17T12:29:15.359Z,9.86
2019-02-17T12:30:14.626Z,10.10
2019-02-17T12:31:14.693Z,10.10
2019-02-17T12:32:15.006Z,10.10
2019-02-17T12:33:18.501Z,9.98
2019-02-17T12:34:14.923Z,9.81
2019-02-17T12:35:15.198Z,9.82
2019-02-17T12:36:14.458Z,9.89
2019-02-17T12:37:14.732Z,9.98
2019-02-17T12:38:15.005Z,9.99
2019-02-17T12:39:15.277Z,9.75
2019-02-17T12:40:14.559Z,9.76
2019-02-17T12:41:14.600Z,9.99
2019-02-17T12:42:14.872Z,10.02
2019-02-17T12:43:15.130Z,10.37
2019-02-17T12:44:15.411Z,10.27
2019-02-17T12:45:18.035Z,10.31
2019-02-17T12:46:14.735Z,10.71
2019-02-17T12:47:15.006Z,10.67
2019-02-17T12:48:15.273Z,10.51
2019-02-17T12:49:14.548Z,10.50
2019-02-17T12:50:14.817Z,10.34
2019-02-17T12:51:14.895Z,10.45
2019-02-17T12:52:15.151Z,10.33
2019-02-17T12:53:15.418Z,10.17
2019-02-17T12:54:14.681Z,10.12
2019-02-17T12:55:14.958Z,10.20
2019-02-17T12:56:15.223Z,10.58
2019-02-17T12:57:14.499Z,10.52
2019-02-17T12:58:14.764Z,10.74
2019-02-17T12:59:15.023Z,10.67